sensor_id;sensor_type;location;lat;lon;timestamp;pressure;altitude;pressure_sealevel;temperature;humidity
64886;BME280;51514;52.206;5.114;2023-02-28T00:00:42;103286.84;;;4.30;74.85
64886;BME280;51514;52.206;5.114;2023-02-28T00:03:08;103276.09;;;4.32;75.22
64886;BME280;51514;52.206;5.114;2023-02-28T00:05:33;103282.22;;;4.34;75.38
64886;BME280;51514;52.206;5.114;2023-02-28T00:07:59;103272.38;;;4.36;74.83
64886;BME280;51514;52.206;5.114;2023-02-28T00:10:27;103276.69;;;4.40;75.23
64886;BME280;51514;52.206;5.114;2023-02-28T00:12:55;103276.56;;;4.43;74.81
64886;BME280;51514;52.206;5.114;2023-02-28T00:15:22;103273.81;;;4.45;75.29
64886;BME280;51514;52.206;5.114;2023-02-28T00:17:48;103290.72;;;4.45;75.08
64886;BME280;51514;52.206;5.114;2023-02-28T00:20:14;103280.84;;;4.47;75.49
64886;BME280;51514;52.206;5.114;2023-02-28T00:22:41;103276.31;;;4.49;75.17
64886;BME280;51514;52.206;5.114;2023-02-28T00:25:07;103284.28;;;4.51;75.14
64886;BME280;51514;52.206;5.114;2023-02-28T00:27:34;103283.88;;;4.38;75.12
64886;BME280;51514;52.206;5.114;2023-02-28T00:30:00;103275.09;;;4.34;75.37
64886;BME280;51514;52.206;5.114;2023-02-28T00:32:26;103277.66;;;4.37;75.21
64886;BME280;51514;52.206;5.114;2023-02-28T00:34:51;103283.06;;;4.36;74.92
64886;BME280;51514;52.206;5.114;2023-02-28T00:37:17;103274.13;;;4.37;75.11
64886;BME280;51514;52.206;5.114;2023-02-28T00:39:42;103272.94;;;4.44;74.97
64886;BME280;51514;52.206;5.114;2023-02-28T00:42:08;103273.59;;;4.51;75.29
64886;BME280;51514;52.206;5.114;2023-02-28T00:44:33;103277.81;;;4.56;75.47
64886;BME280;51514;52.206;5.114;2023-02-28T00:46:59;103268.84;;;4.57;75.24
64886;BME280;51514;52.206;5.114;2023-02-28T00:49:26;103270.59;;;4.58;75.65
64886;BME280;51514;52.206;5.114;2023-02-28T00:51:52;103270.50;;;4.61;75.53
64886;BME280;51514;52.206;5.114;2023-02-28T00:54:18;103273.91;;;4.65;75.24
64886;BME280;51514;52.206;5.114;2023-02-28T00:56:43;103277.31;;;4.68;75.26
64886;BME280;51514;52.206;5.114;2023-02-28T00:59:08;103278.13;;;4.70;75.04
64886;BME280;51514;52.206;5.114;2023-02-28T01:01:34;103272.69;;;4.73;75.11
64886;BME280;51514;52.206;5.114;2023-02-28T01:03:59;103272.53;;;4.76;75.31
64886;BME280;51514;52.206;5.114;2023-02-28T01:06:25;103269.75;;;4.80;75.24
64886;BME280;51514;52.206;5.114;2023-02-28T01:08:50;103273.22;;;4.82;75.61
64886;BME280;51514;52.206;5.114;2023-02-28T01:11:17;103278.47;;;4.85;75.82
64886;BME280;51514;52.206;5.114;2023-02-28T01:13:44;103268.63;;;4.85;75.57
64886;BME280;51514;52.206;5.114;2023-02-28T01:16:09;103285.41;;;4.89;75.35
64886;BME280;51514;52.206;5.114;2023-02-28T01:18:35;103277.38;;;4.89;75.48
64886;BME280;51514;52.206;5.114;2023-02-28T01:21:10;103273.72;;;4.91;74.84
64886;BME280;51514;52.206;5.114;2023-02-28T01:23:36;103275.47;;;4.92;75.10
64886;BME280;51514;52.206;5.114;2023-02-28T01:26:18;103277.16;;;4.95;74.80
64886;BME280;51514;52.206;5.114;2023-02-28T01:28:43;103274.47;;;4.95;75.31
64886;BME280;51514;52.206;5.114;2023-02-28T01:31:09;103273.59;;;4.94;75.02
64886;BME280;51514;52.206;5.114;2023-02-28T01:33:35;103264.66;;;4.95;75.08
64886;BME280;51514;52.206;5.114;2023-02-28T01:36:03;103262.97;;;4.93;75.56
64886;BME280;51514;52.206;5.114;2023-02-28T01:38:29;103258.38;;;4.96;75.63
64886;BME280;51514;52.206;5.114;2023-02-28T01:40:55;103261.78;;;5.00;75.98
64886;BME280;51514;52.206;5.114;2023-02-28T01:43:23;103258.97;;;5.03;75.85
64886;BME280;51514;52.206;5.114;2023-02-28T01:45:50;103255.38;;;5.04;75.60
64886;BME280;51514;52.206;5.114;2023-02-28T01:48:16;103253.56;;;5.04;76.04
64886;BME280;51514;52.206;5.114;2023-02-28T01:50:43;103253.63;;;5.03;75.91
64886;BME280;51514;52.206;5.114;2023-02-28T01:53:13;103261.66;;;5.03;76.09
64886;BME280;51514;52.206;5.114;2023-02-28T01:55:40;103258.06;;;5.04;76.05
64886;BME280;51514;52.206;5.114;2023-02-28T01:58:08;103259.78;;;5.05;76.14
64886;BME280;51514;52.206;5.114;2023-02-28T02:00:34;103249.97;;;5.05;76.29
64886;BME280;51514;52.206;5.114;2023-02-28T02:03:06;103241.88;;;5.07;76.38
64886;BME280;51514;52.206;5.114;2023-02-28T02:05:37;103248.97;;;5.08;76.26
64886;BME280;51514;52.206;5.114;2023-02-28T02:08:05;103244.56;;;5.07;76.46
64886;BME280;51514;52.206;5.114;2023-02-28T02:13:14;103240.81;;;5.11;76.44
64886;BME280;51514;52.206;5.114;2023-02-28T02:19:07;103240.69;;;5.14;76.82
64886;BME280;51514;52.206;5.114;2023-02-28T02:36:27;103240.81;;;5.11;77.59
64886;BME280;51514;52.206;5.114;2023-02-28T02:39:06;103239.00;;;5.11;77.24
64886;BME280;51514;52.206;5.114;2023-02-28T02:41:47;103234.59;;;5.10;77.24
64886;BME280;51514;52.206;5.114;2023-02-28T02:44:31;103233.78;;;5.08;77.75
64886;BME280;51514;52.206;5.114;2023-02-28T02:47:12;103231.91;;;5.10;77.86
64886;BME280;51514;52.206;5.114;2023-02-28T02:49:40;103230.09;;;5.11;77.61
64886;BME280;51514;52.206;5.114;2023-02-28T02:52:10;103234.47;;;5.13;77.66
64886;BME280;51514;52.206;5.114;2023-02-28T02:54:41;103236.25;;;5.13;77.50
64886;BME280;51514;52.206;5.114;2023-02-28T02:57:09;103234.53;;;5.12;78.01
64886;BME280;51514;52.206;5.114;2023-02-28T02:59:39;103246.09;;;5.12;77.61
64886;BME280;51514;52.206;5.114;2023-02-28T03:02:07;103246.03;;;5.14;77.59
64886;BME280;51514;52.206;5.114;2023-02-28T03:04:39;103242.44;;;5.15;77.41
64886;BME280;51514;52.206;5.114;2023-02-28T03:07:07;103241.50;;;5.16;77.96
64886;BME280;51514;52.206;5.114;2023-02-28T03:09:33;103247.72;;;5.17;77.48
64886;BME280;51514;52.206;5.114;2023-02-28T03:12:01;103233.41;;;5.18;77.41
64886;BME280;51514;52.206;5.114;2023-02-28T03:20:27;103230.84;;;5.14;77.23
64886;BME280;51514;52.206;5.114;2023-02-28T03:23:07;103237.81;;;5.19;77.29
64886;BME280;51514;52.206;5.114;2023-02-28T03:28:22;103230.41;;;5.25;77.45
64886;BME280;51514;52.206;5.114;2023-02-28T03:31:10;103221.44;;;5.26;77.29
64886;BME280;51514;52.206;5.114;2023-02-28T03:34:01;103229.41;;;5.28;77.39
64886;BME280;51514;52.206;5.114;2023-02-28T03:36:32;103229.47;;;5.26;77.08
64886;BME280;51514;52.206;5.114;2023-02-28T03:39:05;103233.00;;;5.27;77.13
64886;BME280;51514;52.206;5.114;2023-02-28T03:41:39;103233.00;;;5.27;77.31
64886;BME280;51514;52.206;5.114;2023-02-28T03:44:12;103228.47;;;5.29;77.00
64886;BME280;51514;52.206;5.114;2023-02-28T03:46:44;103232.03;;;5.29;77.25
64886;BME280;51514;52.206;5.114;2023-02-28T03:49:25;103232.88;;;5.30;76.90
64886;BME280;51514;52.206;5.114;2023-02-28T03:51:53;103237.22;;;5.32;77.09
64886;BME280;51514;52.206;5.114;2023-02-28T03:54:23;103235.47;;;5.31;77.13
64886;BME280;51514;52.206;5.114;2023-02-28T03:56:59;103237.44;;;5.28;75.81
64886;BME280;51514;52.206;5.114;2023-02-28T03:59:54;103235.16;;;5.19;75.89
64886;BME280;51514;52.206;5.114;2023-02-28T04:02:17;103230.91;;;5.13;75.46
64886;BME280;51514;52.206;5.114;2023-02-28T04:04:43;103233.72;;;5.10;74.66
64886;BME280;51514;52.206;5.114;2023-02-28T04:07:11;103232.38;;;5.00;75.00
64886;BME280;51514;52.206;5.114;2023-02-28T04:09:36;103235.19;;;4.97;74.81
64886;BME280;51514;52.206;5.114;2023-02-28T04:12:02;103240.38;;;5.00;74.28
64886;BME280;51514;52.206;5.114;2023-02-28T04:14:27;103238.28;;;5.08;74.31
64886;BME280;51514;52.206;5.114;2023-02-28T04:16:53;103242.44;;;5.15;74.35
64886;BME280;51514;52.206;5.114;2023-02-28T04:19:19;103239.88;;;5.12;74.73
64886;BME280;51514;52.206;5.114;2023-02-28T04:21:46;103248.00;;;5.09;75.19
64886;BME280;51514;52.206;5.114;2023-02-28T04:24:15;103251.44;;;5.12;75.18
64886;BME280;51514;52.206;5.114;2023-02-28T04:26:43;103242.66;;;5.09;75.57
64886;BME280;51514;52.206;5.114;2023-02-28T04:29:11;103252.50;;;5.08;75.64
64886;BME280;51514;52.206;5.114;2023-02-28T04:31:37;103244.75;;;5.02;76.16
64886;BME280;51514;52.206;5.114;2023-02-28T04:34:03;103248.41;;;5.00;76.46
64886;BME280;51514;52.206;5.114;2023-02-28T04:36:29;103242.47;;;4.93;76.36
64886;BME280;51514;52.206;5.114;2023-02-28T04:38:54;103238.16;;;4.89;76.47
64886;BME280;51514;52.206;5.114;2023-02-28T04:41:20;103246.38;;;4.85;76.75
64886;BME280;51514;52.206;5.114;2023-02-28T04:43:45;103249.13;;;4.83;76.46
64886;BME280;51514;52.206;5.114;2023-02-28T04:46:11;103253.59;;;4.83;76.61
64886;BME280;51514;52.206;5.114;2023-02-28T04:48:38;103254.47;;;4.83;76.63
64886;BME280;51514;52.206;5.114;2023-02-28T04:51:07;103248.25;;;4.83;76.15
64886;BME280;51514;52.206;5.114;2023-02-28T04:53:33;103256.31;;;4.81;76.15
64886;BME280;51514;52.206;5.114;2023-02-28T04:55:59;103250.09;;;4.81;76.00
64886;BME280;51514;52.206;5.114;2023-02-28T04:58:24;103252.13;;;4.75;76.36
64886;BME280;51514;52.206;5.114;2023-02-28T05:00:51;103241.41;;;4.75;76.41
64886;BME280;51514;52.206;5.114;2023-02-28T05:03:16;103245.09;;;4.73;76.39
64886;BME280;51514;52.206;5.114;2023-02-28T05:05:42;103245.91;;;4.75;76.17
64886;BME280;51514;52.206;5.114;2023-02-28T05:08:07;103236.91;;;4.76;75.92
64886;BME280;51514;52.206;5.114;2023-02-28T05:10:32;103242.25;;;4.76;75.73
64886;BME280;51514;52.206;5.114;2023-02-28T05:12:58;103243.13;;;4.76;76.03
64886;BME280;51514;52.206;5.114;2023-02-28T05:15:23;103247.00;;;4.69;75.10
64886;BME280;51514;52.206;5.114;2023-02-28T05:17:49;103248.19;;;4.62;74.94
64886;BME280;51514;52.206;5.114;2023-02-28T05:20:15;103245.75;;;4.56;74.80
64886;BME280;51514;52.206;5.114;2023-02-28T05:22:41;103247.75;;;4.51;74.52
64886;BME280;51514;52.206;5.114;2023-02-28T05:25:08;103247.97;;;4.45;74.33
64886;BME280;51514;52.206;5.114;2023-02-28T05:27:34;103243.88;;;4.36;73.47
64886;BME280;51514;52.206;5.114;2023-02-28T05:30:00;103242.38;;;4.29;71.62
64886;BME280;51514;52.206;5.114;2023-02-28T05:32:28;103244.22;;;4.27;72.67
64886;BME280;51514;52.206;5.114;2023-02-28T05:34:53;103254.91;;;4.27;72.25
64886;BME280;51514;52.206;5.114;2023-02-28T05:37:19;103250.69;;;4.22;71.66
64886;BME280;51514;52.206;5.114;2023-02-28T05:39:44;103249.88;;;4.20;72.14
64886;BME280;51514;52.206;5.114;2023-02-28T05:42:09;103255.88;;;4.25;72.50
64886;BME280;51514;52.206;5.114;2023-02-28T05:44:35;103255.78;;;4.28;72.99
64886;BME280;51514;52.206;5.114;2023-02-28T05:47:00;103254.03;;;4.27;72.95
64886;BME280;51514;52.206;5.114;2023-02-28T05:49:26;103258.81;;;4.19;72.04
64886;BME280;51514;52.206;5.114;2023-02-28T05:51:51;103265.19;;;4.15;72.52
64886;BME280;51514;52.206;5.114;2023-02-28T05:54:16;103263.56;;;4.11;71.91
64886;BME280;51514;52.206;5.114;2023-02-28T05:56:42;103267.38;;;4.03;71.26
64886;BME280;51514;52.206;5.114;2023-02-28T05:59:11;103262.16;;;4.00;70.99
64886;BME280;51514;52.206;5.114;2023-02-28T06:01:41;103263.03;;;4.01;70.88
64886;BME280;51514;52.206;5.114;2023-02-28T06:04:13;103266.81;;;3.95;70.39
64886;BME280;51514;52.206;5.114;2023-02-28T06:06:42;103262.63;;;3.88;70.30
64886;BME280;51514;52.206;5.114;2023-02-28T06:09:07;103269.81;;;3.86;71.34
64886;BME280;51514;52.206;5.114;2023-02-28T06:11:33;103270.94;;;3.79;71.17
64886;BME280;51514;52.206;5.114;2023-02-28T06:13:59;103272.09;;;3.72;70.81
64886;BME280;51514;52.206;5.114;2023-02-28T06:16:27;103267.00;;;3.66;71.31
64886;BME280;51514;52.206;5.114;2023-02-28T06:18:52;103267.34;;;3.57;72.84
64886;BME280;51514;52.206;5.114;2023-02-28T06:21:20;103272.03;;;3.49;73.16
64886;BME280;51514;52.206;5.114;2023-02-28T06:23:46;103269.66;;;3.41;74.19
64886;BME280;51514;52.206;5.114;2023-02-28T06:26:11;103278.63;;;3.39;74.89
64886;BME280;51514;52.206;5.114;2023-02-28T06:28:36;103275.25;;;3.34;75.23
64886;BME280;51514;52.206;5.114;2023-02-28T06:31:14;103283.31;;;3.32;75.81
64886;BME280;51514;52.206;5.114;2023-02-28T06:33:40;103281.66;;;3.28;76.64
64886;BME280;51514;52.206;5.114;2023-02-28T06:36:07;103277.41;;;3.22;77.27
64886;BME280;51514;52.206;5.114;2023-02-28T06:38:33;103288.91;;;3.24;77.84
64886;BME280;51514;52.206;5.114;2023-02-28T06:40:59;103282.75;;;3.22;79.19
64886;BME280;51514;52.206;5.114;2023-02-28T06:43:26;103287.03;;;3.26;79.13
64886;BME280;51514;52.206;5.114;2023-02-28T06:45:55;103286.06;;;3.29;79.71
64886;BME280;51514;52.206;5.114;2023-02-28T06:48:21;103290.34;;;3.35;79.79
64886;BME280;51514;52.206;5.114;2023-02-28T06:50:46;103291.97;;;3.39;80.15
64886;BME280;51514;52.206;5.114;2023-02-28T06:53:12;103291.03;;;3.40;80.01
64886;BME280;51514;52.206;5.114;2023-02-28T06:55:38;103302.47;;;3.43;79.99
64886;BME280;51514;52.206;5.114;2023-02-28T06:58:04;103305.34;;;3.37;80.37
64886;BME280;51514;52.206;5.114;2023-02-28T07:00:42;103299.34;;;3.30;81.54
64886;BME280;51514;52.206;5.114;2023-02-28T07:03:09;103302.84;;;3.33;81.46
64886;BME280;51514;52.206;5.114;2023-02-28T07:05:38;103301.78;;;3.37;81.47
64886;BME280;51514;52.206;5.114;2023-02-28T07:08:04;103306.22;;;3.38;80.98
64886;BME280;51514;52.206;5.114;2023-02-28T07:10:31;103307.81;;;3.43;81.18
64886;BME280;51514;52.206;5.114;2023-02-28T07:12:58;103313.16;;;3.43;81.35
64886;BME280;51514;52.206;5.114;2023-02-28T07:15:23;103315.75;;;3.45;81.83
64886;BME280;51514;52.206;5.114;2023-02-28T07:17:48;103312.06;;;3.49;81.98
64886;BME280;51514;52.206;5.114;2023-02-28T07:20:14;103311.94;;;3.52;81.20
64886;BME280;51514;52.206;5.114;2023-02-28T07:22:39;103310.22;;;3.51;81.07
64886;BME280;51514;52.206;5.114;2023-02-28T07:25:05;103308.41;;;3.51;82.33
64886;BME280;51514;52.206;5.114;2023-02-28T07:27:31;103318.94;;;3.56;81.96
64886;BME280;51514;52.206;5.114;2023-02-28T07:29:56;103310.00;;;3.57;81.95
64886;BME280;51514;52.206;5.114;2023-02-28T07:32:22;103306.38;;;3.58;81.75
64886;BME280;51514;52.206;5.114;2023-02-28T07:34:47;103305.47;;;3.59;82.49
64886;BME280;51514;52.206;5.114;2023-02-28T07:37:13;103302.72;;;3.62;82.48
64886;BME280;51514;52.206;5.114;2023-02-28T07:39:39;103310.66;;;3.63;81.93
64886;BME280;51514;52.206;5.114;2023-02-28T07:42:07;103305.38;;;3.62;81.95
64886;BME280;51514;52.206;5.114;2023-02-28T07:44:35;103302.72;;;3.62;82.55
64886;BME280;51514;52.206;5.114;2023-02-28T07:47:08;103296.41;;;3.64;83.10
64886;BME280;51514;52.206;5.114;2023-02-28T07:49:37;103307.91;;;3.66;82.86
64886;BME280;51514;52.206;5.114;2023-02-28T07:52:04;103295.28;;;3.70;83.14
64886;BME280;51514;52.206;5.114;2023-02-28T07:54:30;103309.34;;;3.75;82.31
64886;BME280;51514;52.206;5.114;2023-02-28T07:56:55;103296.84;;;3.77;82.38
64886;BME280;51514;52.206;5.114;2023-02-28T07:59:21;103309.13;;;3.81;82.97
64886;BME280;51514;52.206;5.114;2023-02-28T08:01:46;103302.75;;;3.85;82.88
64886;BME280;51514;52.206;5.114;2023-02-28T08:04:11;103304.41;;;3.89;82.94
64886;BME280;51514;52.206;5.114;2023-02-28T08:06:36;103309.56;;;3.94;82.65
64886;BME280;51514;52.206;5.114;2023-02-28T08:09:02;103308.59;;;3.96;82.95
64886;BME280;51514;52.206;5.114;2023-02-28T08:11:27;103299.50;;;4.00;82.94
64886;BME280;51514;52.206;5.114;2023-02-28T08:13:54;103302.13;;;4.02;83.21
64886;BME280;51514;52.206;5.114;2023-02-28T08:16:19;103303.84;;;4.04;82.47
64886;BME280;51514;52.206;5.114;2023-02-28T08:18:48;103303.78;;;4.06;83.03
64886;BME280;51514;52.206;5.114;2023-02-28T08:21:14;103310.81;;;4.09;83.21
64886;BME280;51514;52.206;5.114;2023-02-28T08:23:39;103309.75;;;4.13;83.41
64886;BME280;51514;52.206;5.114;2023-02-28T08:26:05;103304.31;;;4.16;83.35
64886;BME280;51514;52.206;5.114;2023-02-28T08:28:30;103314.09;;;4.15;83.19
64886;BME280;51514;52.206;5.114;2023-02-28T08:30:56;103313.25;;;4.15;83.04
64886;BME280;51514;52.206;5.114;2023-02-28T08:33:22;103319.50;;;4.14;83.64
64886;BME280;51514;52.206;5.114;2023-02-28T08:35:47;103303.53;;;4.12;83.29
64886;BME280;51514;52.206;5.114;2023-02-28T08:38:13;103313.25;;;4.15;83.34
64886;BME280;51514;52.206;5.114;2023-02-28T08:40:38;103306.16;;;4.14;83.58
64886;BME280;51514;52.206;5.114;2023-02-28T08:43:03;103305.94;;;4.20;83.38
64886;BME280;51514;52.206;5.114;2023-02-28T08:45:29;103309.34;;;4.23;83.33
64886;BME280;51514;52.206;5.114;2023-02-28T08:47:54;103310.16;;;4.25;84.14
64886;BME280;51514;52.206;5.114;2023-02-28T08:50:20;103310.94;;;4.29;83.65
64886;BME280;51514;52.206;5.114;2023-02-28T08:52:46;103318.03;;;4.30;83.43
64886;BME280;51514;52.206;5.114;2023-02-28T08:55:12;103318.75;;;4.33;83.72
64886;BME280;51514;52.206;5.114;2023-02-28T08:57:37;103323.31;;;4.31;84.17
64886;BME280;51514;52.206;5.114;2023-02-28T09:00:03;103316.03;;;4.35;84.44
64886;BME280;51514;52.206;5.114;2023-02-28T09:02:32;103318.44;;;4.43;84.13
64886;BME280;51514;52.206;5.114;2023-02-28T09:04:58;103310.94;;;4.52;84.26
64886;BME280;51514;52.206;5.114;2023-02-28T09:07:24;103316.84;;;4.60;83.42
64886;BME280;51514;52.206;5.114;2023-02-28T09:09:50;103318.47;;;4.64;83.46
64886;BME280;51514;52.206;5.114;2023-02-28T09:12:26;103307.66;;;4.67;83.69
64886;BME280;51514;52.206;5.114;2023-02-28T09:14:52;103315.66;;;4.67;83.74
64886;BME280;51514;52.206;5.114;2023-02-28T09:17:18;103322.19;;;4.60;82.08
64886;BME280;51514;52.206;5.114;2023-02-28T09:19:44;103327.47;;;4.62;83.10
64886;BME280;51514;52.206;5.114;2023-02-28T09:22:10;103330.16;;;4.62;81.99
64886;BME280;51514;52.206;5.114;2023-02-28T09:24:37;103333.63;;;4.64;80.94
64886;BME280;51514;52.206;5.114;2023-02-28T09:27:03;103325.22;;;4.51;78.56
64886;BME280;51514;52.206;5.114;2023-02-28T09:29:29;103325.44;;;4.45;78.10
64886;BME280;51514;52.206;5.114;2023-02-28T09:31:54;103321.88;;;4.45;77.90
64886;BME280;51514;52.206;5.114;2023-02-28T09:34:21;103327.00;;;4.51;77.62
64886;BME280;51514;52.206;5.114;2023-02-28T09:36:46;103326.03;;;4.53;76.49
64886;BME280;51514;52.206;5.114;2023-02-28T09:39:12;103329.75;;;4.49;75.71
64886;BME280;51514;52.206;5.114;2023-02-28T09:41:47;103327.78;;;4.54;75.18
64886;BME280;51514;52.206;5.114;2023-02-28T09:44:37;103332.97;;;4.57;75.56
64886;BME280;51514;52.206;5.114;2023-02-28T09:47:30;103332.88;;;4.60;73.73
64886;BME280;51514;52.206;5.114;2023-02-28T09:50:06;103330.38;;;4.56;72.98
64886;BME280;51514;52.206;5.114;2023-02-28T09:52:34;103331.19;;;4.58;72.74
64886;BME280;51514;52.206;5.114;2023-02-28T09:58:56;103331.03;;;4.62;68.77
64886;BME280;51514;52.206;5.114;2023-02-28T10:01:45;103330.75;;;4.68;70.33
64886;BME280;51514;52.206;5.114;2023-02-28T10:04:54;103331.53;;;4.72;67.64
64886;BME280;51514;52.206;5.114;2023-02-28T10:07:30;103331.31;;;4.76;68.29
64886;BME280;51514;52.206;5.114;2023-02-28T10:10:04;103328.75;;;4.75;68.69
64886;BME280;51514;52.206;5.114;2023-02-28T10:12:31;103337.63;;;4.75;67.45
64886;BME280;51514;52.206;5.114;2023-02-28T10:14:59;103330.28;;;4.81;68.33
64886;BME280;51514;52.206;5.114;2023-02-28T10:17:38;103339.69;;;4.91;66.56
64886;BME280;51514;52.206;5.114;2023-02-28T10:20:14;103327.19;;;4.91;64.34
64886;BME280;51514;52.206;5.114;2023-02-28T10:22:59;103331.28;;;5.00;64.70
64886;BME280;51514;52.206;5.114;2023-02-28T10:25:32;103333.47;;;5.12;65.73
64886;BME280;51514;52.206;5.114;2023-02-28T10:28:13;103330.13;;;5.07;62.81
64886;BME280;51514;52.206;5.114;2023-02-28T10:30:43;103326.94;;;5.19;64.62
64886;BME280;51514;52.206;5.114;2023-02-28T10:33:28;103322.97;;;5.29;63.25
64886;BME280;51514;52.206;5.114;2023-02-28T10:35:54;103316.34;;;5.38;64.75
64886;BME280;51514;52.206;5.114;2023-02-28T10:38:36;103319.50;;;5.47;62.39
64886;BME280;51514;52.206;5.114;2023-02-28T10:41:14;103317.88;;;5.64;62.16
64886;BME280;51514;52.206;5.114;2023-02-28T10:43:42;103314.91;;;5.71;60.45
64886;BME280;51514;52.206;5.114;2023-02-28T10:51:02;103310.91;;;6.02;61.99
64886;BME280;51514;52.206;5.114;2023-02-28T10:56:15;103303.75;;;6.21;61.77
64886;BME280;51514;52.206;5.114;2023-02-28T10:59:01;103309.44;;;6.34;58.54
64886;BME280;51514;52.206;5.114;2023-02-28T11:04:02;103308.13;;;6.61;59.74
64886;BME280;51514;52.206;5.114;2023-02-28T11:06:33;103300.06;;;6.61;56.00
64886;BME280;51514;52.206;5.114;2023-02-28T11:09:01;103289.94;;;6.68;52.65
64886;BME280;51514;52.206;5.114;2023-02-28T11:11:29;103282.19;;;6.62;48.20
64886;BME280;51514;52.206;5.114;2023-02-28T11:14:03;103288.59;;;6.59;48.17
64886;BME280;51514;52.206;5.114;2023-02-28T11:16:34;103284.94;;;6.79;47.27
64886;BME280;51514;52.206;5.114;2023-02-28T11:19:03;103285.56;;;6.84;48.97
64886;BME280;51514;52.206;5.114;2023-02-28T11:21:34;103280.41;;;6.98;48.29
64886;BME280;51514;52.206;5.114;2023-02-28T11:26:47;103277.13;;;7.27;47.41
64886;BME280;51514;52.206;5.114;2023-02-28T11:29:17;103272.63;;;7.28;45.62
64886;BME280;51514;52.206;5.114;2023-02-28T11:32:01;103269.72;;;7.50;45.71
64886;BME280;51514;52.206;5.114;2023-02-28T11:34:27;103262.41;;;7.69;46.34
64886;BME280;51514;52.206;5.114;2023-02-28T11:36:55;103258.78;;;7.87;44.80
64886;BME280;51514;52.206;5.114;2023-02-28T11:39:22;103258.50;;;7.92;44.40
64886;BME280;51514;52.206;5.114;2023-02-28T11:44:36;103251.81;;;7.83;43.91
64886;BME280;51514;52.206;5.114;2023-02-28T11:55:11;103249.66;;;7.90;44.27
64886;BME280;51514;52.206;5.114;2023-02-28T12:10:29;103239.50;;;8.12;45.05
64886;BME280;51514;52.206;5.114;2023-02-28T12:18:55;103224.28;;;8.44;43.46
64886;BME280;51514;52.206;5.114;2023-02-28T12:27:11;103233.97;;;8.15;42.43
64886;BME280;51514;52.206;5.114;2023-02-28T12:29:49;103224.78;;;8.19;42.26
64886;BME280;51514;52.206;5.114;2023-02-28T12:32:20;103222.78;;;8.23;41.93
64886;BME280;51514;52.206;5.114;2023-02-28T12:34:54;103217.69;;;8.18;40.47
64886;BME280;51514;52.206;5.114;2023-02-28T12:37:36;103223.38;;;7.96;40.85
64886;BME280;51514;52.206;5.114;2023-02-28T12:40:12;103214.00;;;8.03;41.80
64886;BME280;51514;52.206;5.114;2023-02-28T12:42:42;103212.81;;;8.09;41.92
64886;BME280;51514;52.206;5.114;2023-02-28T12:47:48;103204.19;;;8.35;42.74
64886;BME280;51514;52.206;5.114;2023-02-28T12:50:15;103201.56;;;8.34;41.10
64886;BME280;51514;52.206;5.114;2023-02-28T12:53:00;103204.25;;;8.18;39.88
64886;BME280;51514;52.206;5.114;2023-02-28T12:58:17;103203.34;;;8.02;40.73
64886;BME280;51514;52.206;5.114;2023-02-28T13:01:13;103208.78;;;7.85;40.91
64886;BME280;51514;52.206;5.114;2023-02-28T13:03:52;103208.63;;;8.03;43.86
64886;BME280;51514;52.206;5.114;2023-02-28T13:09:09;103195.84;;;7.76;39.44
64886;BME280;51514;52.206;5.114;2023-02-28T13:11:40;103192.31;;;7.58;41.59
64886;BME280;51514;52.206;5.114;2023-02-28T13:14:18;103194.31;;;7.54;41.13
64886;BME280;51514;52.206;5.114;2023-02-28T13:19:17;103182.63;;;7.38;40.20
64886;BME280;51514;52.206;5.114;2023-02-28T13:21:44;103181.22;;;7.48;41.30
64886;BME280;51514;52.206;5.114;2023-02-28T13:24:10;103187.06;;;7.56;42.20
64886;BME280;51514;52.206;5.114;2023-02-28T13:34:40;103174.88;;;7.66;42.23
64886;BME280;51514;52.206;5.114;2023-02-28T13:39:53;103184.97;;;7.61;39.92
64886;BME280;51514;52.206;5.114;2023-02-28T13:48:03;103175.38;;;7.40;40.58
64886;BME280;51514;52.206;5.114;2023-02-28T13:50:30;103169.84;;;7.43;40.74
64886;BME280;51514;52.206;5.114;2023-02-28T14:06:35;103169.56;;;7.65;38.94
64886;BME280;51514;52.206;5.114;2023-02-28T14:11:39;103155.41;;;7.79;40.58
64886;BME280;51514;52.206;5.114;2023-02-28T14:14:07;103157.03;;;7.65;39.66
64886;BME280;51514;52.206;5.114;2023-02-28T14:16:45;103151.88;;;7.61;39.96
64886;BME280;51514;52.206;5.114;2023-02-28T14:19:24;103143.75;;;7.62;42.46
64886;BME280;51514;52.206;5.114;2023-02-28T14:25:22;103147.53;;;7.58;38.77
64886;BME280;51514;52.206;5.114;2023-02-28T14:28:18;103142.19;;;7.58;40.20
64886;BME280;51514;52.206;5.114;2023-02-28T14:31:03;103146.44;;;7.62;40.21
64886;BME280;51514;52.206;5.114;2023-02-28T14:33:46;103140.44;;;7.57;39.54
64886;BME280;51514;52.206;5.114;2023-02-28T14:36:24;103141.31;;;7.58;38.78
64886;BME280;51514;52.206;5.114;2023-02-28T14:38:53;103144.88;;;7.58;38.60
64886;BME280;51514;52.206;5.114;2023-02-28T14:41:22;103139.41;;;7.60;38.73
64886;BME280;51514;52.206;5.114;2023-02-28T14:43:50;103134.91;;;7.60;40.21
64886;BME280;51514;52.206;5.114;2023-02-28T14:46:16;103137.44;;;7.63;40.71
64886;BME280;51514;52.206;5.114;2023-02-28T14:48:46;103129.31;;;7.65;41.65
64886;BME280;51514;52.206;5.114;2023-02-28T14:51:12;103126.69;;;7.63;41.97
64886;BME280;51514;52.206;5.114;2023-02-28T14:53:43;103133.19;;;7.59;40.10
64886;BME280;51514;52.206;5.114;2023-02-28T14:56:30;103130.91;;;7.52;38.73
64886;BME280;51514;52.206;5.114;2023-02-28T14:58:58;103131.94;;;7.49;39.89
64886;BME280;51514;52.206;5.114;2023-02-28T15:01:24;103128.16;;;7.53;42.30
64886;BME280;51514;52.206;5.114;2023-02-28T15:04:06;103144.88;;;7.58;43.70
64886;BME280;51514;52.206;5.114;2023-02-28T15:06:32;103137.75;;;7.57;43.55
64886;BME280;51514;52.206;5.114;2023-02-28T15:09:16;103141.31;;;7.58;43.93
64886;BME280;51514;52.206;5.114;2023-02-28T15:11:46;103142.47;;;7.37;42.09
64886;BME280;51514;52.206;5.114;2023-02-28T15:14:17;103137.81;;;7.40;43.41
64886;BME280;51514;52.206;5.114;2023-02-28T15:16:46;103129.59;;;7.43;42.98
64886;BME280;51514;52.206;5.114;2023-02-28T15:19:25;103139.19;;;7.47;43.34